Broadway, New Jersey
Current Conditions -  °F | °C
As of 12:51 PM on Tuesday 21 Oct 2014 (Local Time) from KABE Reporting Station
Few Clouds Few Clouds  
Wind Chill: 64°   Ceiling: Unl
Heat Index: 64°   Visibility: 10mi
Dew Point: 49°   Wind: 3mph
Humidity: 58%   Direction: NA
Pressure: 29.85"   Gusts: NA
Location:  40.73°N, 75.05°W
Report Text: KABE 211651Z VRB03KT 10SM FEW055 18/09 A2985 RMK AO2 SLP107 T01780094
Loading
Personal Weather Stations






























Interactive Weather Map
Tropical Storm Tracking
New forecast layout! Learn more

10-Day Weather Forecast

Advertisements
Track Severe Weather on mobile